createdAt,value
2023-05-24T00:01:42.336Z,19.95
2023-05-24T00:04:09.301Z,19.95
2023-05-24T00:06:37.319Z,19.95
2023-05-24T00:09:06.904Z,19.95
2023-05-24T00:11:36.082Z,19.95
2023-05-24T00:14:02.859Z,19.96
2023-05-24T00:16:29.697Z,19.97
2023-05-24T00:18:58.394Z,19.97
2023-05-24T00:21:25.183Z,19.97
2023-05-24T00:23:52.090Z,19.97
2023-05-24T00:26:18.947Z,19.96
2023-05-24T00:28:48.241Z,19.97
2023-05-24T00:31:15.040Z,19.97
2023-05-24T00:33:41.747Z,19.99
2023-05-24T00:36:10.652Z,19.98
2023-05-24T00:38:42.946Z,19.98
2023-05-24T00:41:11.682Z,19.98
2023-05-24T00:43:38.496Z,19.98
2023-05-24T00:46:24.728Z,19.98
2023-05-24T00:48:53.815Z,19.96
2023-05-24T00:51:20.635Z,19.99
2023-05-24T00:53:48.334Z,19.99
2023-05-24T00:56:17.709Z,19.99
2023-05-24T00:58:46.829Z,20.00
2023-05-24T01:01:15.873Z,19.99
2023-05-24T01:03:46.420Z,19.99
2023-05-24T01:06:13.514Z,19.96
2023-05-24T01:08:40.354Z,20.00
2023-05-24T01:11:35.259Z,19.99
2023-05-24T01:14:41.001Z,20.00
2023-05-24T01:17:48.848Z,19.99
2023-05-24T01:20:17.771Z,19.98
2023-05-24T01:23:06.405Z,19.93
2023-05-24T01:25:44.522Z,19.99
2023-05-24T01:28:13.800Z,19.98
2023-05-24T01:30:40.971Z,19.98
2023-05-24T01:33:07.808Z,19.98
2023-05-24T01:35:40.222Z,19.97
2023-05-24T01:38:11.180Z,19.98
2023-05-24T01:40:41.174Z,19.99
2023-05-24T01:43:24.358Z,19.97
2023-05-24T01:45:54.254Z,19.98
2023-05-24T01:48:58.655Z,19.98
2023-05-24T01:51:30.523Z,19.97
2023-05-24T01:53:57.146Z,19.96
2023-05-24T01:56:23.841Z,19.97
2023-05-24T01:58:55.897Z,19.96
2023-05-24T02:01:26.034Z,19.97
2023-05-24T02:03:52.811Z,19.98
2023-05-24T02:06:19.973Z,19.97
2023-05-24T02:08:46.742Z,19.97
2023-05-24T02:11:13.413Z,19.97
2023-05-24T02:13:42.320Z,19.96
2023-05-24T02:16:13.636Z,19.95
2023-05-24T02:18:44.966Z,19.96
2023-05-24T02:21:13.880Z,19.97
2023-05-24T02:23:40.833Z,19.98
2023-05-24T02:26:07.772Z,19.96
2023-05-24T02:28:34.511Z,19.97
2023-05-24T02:31:03.438Z,19.97
2023-05-24T02:33:32.299Z,19.95
2023-05-24T02:36:01.505Z,19.96
2023-05-24T02:38:32.880Z,19.96
2023-05-24T02:40:59.601Z,19.95
2023-05-24T02:43:26.266Z,19.97
2023-05-24T02:45:53.003Z,19.95
2023-05-24T02:48:19.748Z,19.95
2023-05-24T02:50:48.629Z,19.95
2023-05-24T02:53:17.555Z,19.94
2023-05-24T02:55:46.682Z,19.97
2023-05-24T02:58:18.149Z,19.95
2023-05-24T03:00:47.181Z,19.95
2023-05-24T03:03:13.887Z,19.95
2023-05-24T03:05:45.281Z,19.94
2023-05-24T03:08:11.991Z,19.94
2023-05-24T03:10:38.772Z,19.95
2023-05-24T03:13:07.829Z,19.95
2023-05-24T03:15:34.591Z,19.90
2023-05-24T03:18:01.347Z,19.95
2023-05-24T03:20:34.041Z,19.94
2023-05-24T03:23:03.273Z,19.94
2023-05-24T03:25:33.081Z,19.94
2023-05-24T03:27:59.935Z,19.94
2023-05-24T03:30:31.427Z,19.93
2023-05-24T03:32:58.214Z,19.93
2023-05-24T03:35:24.993Z,19.93
2023-05-24T03:37:56.846Z,19.92
2023-05-24T03:40:25.821Z,19.93
2023-05-24T03:42:52.475Z,19.92
2023-05-24T03:45:34.614Z,19.93
2023-05-24T03:48:05.061Z,19.92
2023-05-24T03:50:34.073Z,19.92
2023-05-24T03:53:03.090Z,19.93
2023-05-24T03:55:32.118Z,19.94
2023-05-24T03:58:04.167Z,19.93
2023-05-24T04:00:31.018Z,19.93
2023-05-24T04:02:57.668Z,19.93
2023-05-24T04:05:29.819Z,19.93
2023-05-24T04:07:58.779Z,19.92
2023-05-24T04:10:25.498Z,19.93
2023-05-24T04:12:57.215Z,19.91
2023-05-24T04:15:26.927Z,19.92
2023-05-24T04:17:56.197Z,19.93
2023-05-24T04:20:27.948Z,19.94
2023-05-24T04:22:56.897Z,19.93
2023-05-24T04:25:26.990Z,19.92
2023-05-24T04:27:53.716Z,19.92
2023-05-24T04:30:22.777Z,19.92
2023-05-24T04:32:52.283Z,19.92
2023-05-24T04:35:23.829Z,19.92
2023-05-24T04:37:52.637Z,19.92
2023-05-24T04:40:23.042Z,19.92
2023-05-24T04:42:50.311Z,19.93
2023-05-24T04:45:17.123Z,19.92
2023-05-24T04:47:46.632Z,19.93
2023-05-24T04:50:13.498Z,19.92
2023-05-24T04:52:42.986Z,19.91
2023-05-24T04:55:10.323Z,19.90
2023-05-24T04:57:36.969Z,19.92
2023-05-24T05:00:04.981Z,19.91
2023-05-24T05:02:32.075Z,19.92
2023-05-24T05:04:58.839Z,19.90
2023-05-24T05:07:27.747Z,19.90
2023-05-24T05:09:57.064Z,19.91
2023-05-24T05:12:23.984Z,19.91
2023-05-24T05:14:53.252Z,19.92
2023-05-24T05:17:22.094Z,19.91
2023-05-24T05:19:48.833Z,19.90
2023-05-24T05:22:18.583Z,19.91
2023-05-24T05:24:45.218Z,19.86
2023-05-24T05:27:14.181Z,19.93
2023-05-24T05:29:41.693Z,19.93
2023-05-24T05:32:08.724Z,19.91
2023-05-24T05:34:40.201Z,19.91
2023-05-24T05:37:07.405Z,19.91
2023-05-24T05:39:34.092Z,19.93
2023-05-24T05:42:03.525Z,19.93
2023-05-24T05:44:30.198Z,19.90
2023-05-24T05:46:56.954Z,19.93
2023-05-24T05:49:26.029Z,19.93
2023-05-24T05:51:55.031Z,19.93
2023-05-24T05:54:27.920Z,19.92
2023-05-24T05:56:58.214Z,19.92
2023-05-24T05:59:28.522Z,19.92
2023-05-24T06:01:55.313Z,19.93
2023-05-24T06:04:22.032Z,19.93
2023-05-24T06:06:53.533Z,19.92
2023-05-24T06:09:22.691Z,19.93
2023-05-24T06:11:52.255Z,19.94
2023-05-24T06:14:21.435Z,19.94
2023-05-24T06:16:51.279Z,19.93
2023-05-24T06:19:18.567Z,19.94
2023-05-24T06:21:48.477Z,19.94
2023-05-24T06:24:17.974Z,19.94
2023-05-24T06:26:45.624Z,19.95
2023-05-24T06:29:19.712Z,19.96
2023-05-24T06:31:47.502Z,19.95
2023-05-24T06:34:19.013Z,19.96
2023-05-24T06:36:47.912Z,19.96
2023-05-24T06:39:15.343Z,19.94
2023-05-24T06:41:43.300Z,19.90
2023-05-24T06:44:12.141Z,19.85
2023-05-24T06:46:41.563Z,19.90
2023-05-24T06:49:10.469Z,19.80
2023-05-24T06:51:39.375Z,19.73
2023-05-24T06:54:09.069Z,19.73
2023-05-24T06:56:35.757Z,19.76
2023-05-24T06:59:04.644Z,19.71
2023-05-24T07:01:33.828Z,19.65
2023-05-24T07:04:03.424Z,19.62
2023-05-24T07:06:32.389Z,19.68
2023-05-24T07:08:59.367Z,19.71
2023-05-24T07:11:28.397Z,19.72
2023-05-24T07:13:55.255Z,19.74
2023-05-24T07:16:26.669Z,19.69
2023-05-24T07:18:58.380Z,19.69
2023-05-24T07:21:27.378Z,19.67
2023-05-24T07:23:57.115Z,19.67
2023-05-24T07:26:29.699Z,19.65
2023-05-24T07:28:58.512Z,19.66
2023-05-24T07:31:29.870Z,19.72
2023-05-24T07:33:58.747Z,19.79
2023-05-24T07:36:26.174Z,19.76
2023-05-24T07:38:55.767Z,19.75
2023-05-24T07:41:23.282Z,19.78
2023-05-24T07:43:49.988Z,19.78
2023-05-24T07:46:19.298Z,19.83
2023-05-24T07:48:46.252Z,19.88
2023-05-24T07:51:15.695Z,19.96
2023-05-24T07:53:44.880Z,19.98
2023-05-24T07:56:11.632Z,19.93
2023-05-24T07:58:43.068Z,19.91
2023-05-24T08:01:13.262Z,20.01
2023-05-24T08:03:40.093Z,20.00
2023-05-24T08:06:06.874Z,19.91
2023-05-24T08:08:33.800Z,19.95
2023-05-24T08:11:00.501Z,19.95
2023-05-24T08:13:27.250Z,19.98
2023-05-24T08:15:53.983Z,19.98
2023-05-24T08:18:22.874Z,20.01
2023-05-24T08:20:49.622Z,20.02
2023-05-24T08:23:18.786Z,20.06
2023-05-24T08:25:47.732Z,20.02
2023-05-24T08:28:17.114Z,20.06
2023-05-24T08:30:43.925Z,20.04
2023-05-24T08:33:12.808Z,20.07
2023-05-24T08:35:39.624Z,20.05
2023-05-24T08:38:07.042Z,20.09
2023-05-24T08:40:36.408Z,20.12
2023-05-24T08:43:03.544Z,20.11
2023-05-24T08:45:31.329Z,20.07
2023-05-24T08:48:00.460Z,20.11
2023-05-24T08:50:29.867Z,20.11
2023-05-24T08:52:56.631Z,20.15
2023-05-24T08:55:30.000Z,20.13
2023-05-24T08:58:01.205Z,20.13
2023-05-24T09:00:28.024Z,20.13
2023-05-24T09:02:54.792Z,20.12
2023-05-24T09:05:24.483Z,20.16
2023-05-24T09:07:51.241Z,20.17
2023-05-24T09:10:23.838Z,20.17
2023-05-24T09:12:55.762Z,20.21
2023-05-24T09:15:22.593Z,20.22
2023-05-24T09:17:49.528Z,20.22
2023-05-24T09:20:16.600Z,20.24
2023-05-24T09:22:43.977Z,20.22
2023-05-24T09:25:13.051Z,20.22
2023-05-24T09:27:40.077Z,20.23
2023-05-24T09:30:11.058Z,20.26
2023-05-24T09:32:38.074Z,20.26
2023-05-24T09:35:08.359Z,20.28
2023-05-24T09:37:40.428Z,20.31
2023-05-24T09:40:09.123Z,20.29
2023-05-24T09:42:36.461Z,20.27
2023-05-24T09:45:09.435Z,20.28
2023-05-24T09:47:37.222Z,20.27
2023-05-24T09:50:05.334Z,20.28
2023-05-24T09:52:33.871Z,20.28
2023-05-24T09:55:01.288Z,20.32
2023-05-24T09:57:30.369Z,20.34
2023-05-24T09:59:59.342Z,20.41
2023-05-24T10:02:26.141Z,20.44
2023-05-24T10:05:00.749Z,20.40
2023-05-24T10:07:27.748Z,20.41
2023-05-24T10:09:55.330Z,20.34
2023-05-24T10:12:25.830Z,20.32
2023-05-24T10:14:57.586Z,20.30
2023-05-24T10:17:28.158Z,20.37
2023-05-24T10:19:57.137Z,20.34
2023-05-24T10:22:26.197Z,20.32
2023-05-24T10:25:00.111Z,20.29
2023-05-24T10:27:31.711Z,20.29
2023-05-24T10:30:09.478Z,20.26
2023-05-24T10:32:40.212Z,20.25
2023-05-24T10:35:07.651Z,20.25
2023-05-24T10:37:37.264Z,20.25
2023-05-24T10:40:06.763Z,20.25
2023-05-24T10:42:35.953Z,20.23
2023-05-24T10:45:27.812Z,20.22
2023-05-24T10:47:56.756Z,20.22
2023-05-24T10:50:24.502Z,20.21
2023-05-24T10:52:51.228Z,20.20
2023-05-24T10:55:19.537Z,20.18
2023-05-24T10:57:46.292Z,20.18
2023-05-24T11:00:34.494Z,20.19
2023-05-24T11:03:09.527Z,20.21
2023-05-24T11:05:46.796Z,20.19
2023-05-24T11:08:16.067Z,20.16
2023-05-24T11:10:45.913Z,20.16
2023-05-24T11:13:12.631Z,20.17
2023-05-24T11:15:50.952Z,20.15
2023-05-24T11:18:20.395Z,20.15
2023-05-24T11:20:50.405Z,20.15
2023-05-24T11:23:17.328Z,20.14
2023-05-24T11:25:46.405Z,20.13
2023-05-24T11:28:13.310Z,20.08
2023-05-24T11:30:44.086Z,20.14
2023-05-24T11:33:14.828Z,20.13
2023-05-24T11:35:42.106Z,20.12
2023-05-24T11:38:13.529Z,20.14
2023-05-24T11:40:47.042Z,20.13
2023-05-24T11:43:16.672Z,20.13
2023-05-24T11:45:48.751Z,20.11
2023-05-24T11:48:18.916Z,20.13
2023-05-24T11:50:50.337Z,20.13
2023-05-24T11:53:21.226Z,20.10
2023-05-24T11:55:51.528Z,20.11
2023-05-24T11:58:21.429Z,20.11
2023-05-24T12:00:50.786Z,20.11
2023-05-24T12:03:20.537Z,20.11
2023-05-24T12:05:49.811Z,20.11
2023-05-24T12:08:20.462Z,20.11
2023-05-24T12:10:50.855Z,20.13
2023-05-24T12:13:23.334Z,20.10
2023-05-24T12:15:58.407Z,20.10
2023-05-24T12:18:28.385Z,20.10
2023-05-24T12:20:55.059Z,20.09
2023-05-24T12:23:24.344Z,20.09
2023-05-24T12:25:51.072Z,20.09
2023-05-24T12:28:24.815Z,20.06
2023-05-24T12:30:57.213Z,20.04
2023-05-24T12:33:24.092Z,20.06
2023-05-24T12:35:53.532Z,20.07
2023-05-24T12:38:25.491Z,20.08
2023-05-24T12:41:11.642Z,20.08
2023-05-24T12:43:40.804Z,20.08
2023-05-24T12:46:07.836Z,20.08
2023-05-24T12:48:40.299Z,20.02
2023-05-24T12:51:09.882Z,20.10
2023-05-24T12:53:39.202Z,20.10
2023-05-24T12:56:06.160Z,20.08
2023-05-24T12:58:35.043Z,20.09
2023-05-24T13:01:03.889Z,20.08
2023-05-24T13:03:30.720Z,20.09
2023-05-24T13:05:59.508Z,20.11
2023-05-24T13:08:28.724Z,20.09
2023-05-24T13:10:55.504Z,20.09
2023-05-24T13:13:24.385Z,20.09
2023-05-24T13:15:52.385Z,20.08
2023-05-24T13:18:21.479Z,20.07
2023-05-24T13:20:48.516Z,20.04
2023-05-24T13:23:15.468Z,20.08
2023-05-24T13:25:44.371Z,20.07
2023-05-24T13:28:11.520Z,20.09
2023-05-24T13:30:38.763Z,20.07
2023-05-24T13:33:05.980Z,20.09
2023-05-24T13:35:35.009Z,20.07
2023-05-24T13:38:04.167Z,20.07
2023-05-24T13:40:31.682Z,20.09
2023-05-24T13:42:58.979Z,20.08
2023-05-24T13:45:26.072Z,20.04
2023-05-24T13:47:53.958Z,20.07
2023-05-24T13:50:22.841Z,20.08
2023-05-24T13:52:49.672Z,20.06
2023-05-24T13:55:16.694Z,20.04
2023-05-24T14:00:17.680Z,20.06
2023-05-24T14:02:46.719Z,20.04
2023-05-24T14:05:25.940Z,20.06
2023-05-24T14:08:00.248Z,20.03
2023-05-24T14:10:29.463Z,19.99
2023-05-24T14:13:12.879Z,20.05
2023-05-24T14:15:46.822Z,20.06
2023-05-24T14:18:16.126Z,20.06
2023-05-24T14:20:47.550Z,20.03
2023-05-24T14:23:16.703Z,20.06
2023-05-24T14:25:46.958Z,20.07
2023-05-24T14:28:18.482Z,20.06
2023-05-24T14:30:45.257Z,20.06
2023-05-24T14:33:19.758Z,20.00
2023-05-24T14:35:46.706Z,20.06
2023-05-24T14:38:15.942Z,20.05
2023-05-24T14:40:47.584Z,20.06
2023-05-24T14:43:14.844Z,20.06
2023-05-24T14:45:43.925Z,20.07
2023-05-24T14:48:13.275Z,20.07
2023-05-24T14:50:40.429Z,20.11
2023-05-24T14:53:12.199Z,20.14
2023-05-24T14:55:57.855Z,20.12
2023-05-24T14:58:24.781Z,20.13
2023-05-24T15:00:51.613Z,20.15
2023-05-24T15:03:18.721Z,20.12
2023-05-24T15:05:45.677Z,20.17
2023-05-24T15:08:14.815Z,20.21
2023-05-24T15:10:44.468Z,20.22
2023-05-24T15:13:11.924Z,20.21
2023-05-24T15:15:42.043Z,20.21
2023-05-24T15:18:11.051Z,20.20
2023-05-24T15:20:40.465Z,20.21
2023-05-24T15:23:10.613Z,20.25
2023-05-24T15:25:39.687Z,20.26
2023-05-24T15:28:06.602Z,20.28
2023-05-24T15:30:33.346Z,20.28
2023-05-24T15:33:00.175Z,20.26
2023-05-24T15:35:27.522Z,20.24
2023-05-24T15:37:56.719Z,20.23
2023-05-24T15:40:27.084Z,20.25
2023-05-24T15:42:56.578Z,20.23
2023-05-24T15:45:23.504Z,20.23
2023-05-24T15:47:50.247Z,20.24
2023-05-24T15:50:28.560Z,20.23
2023-05-24T15:53:03.541Z,20.24
2023-05-24T15:55:30.378Z,20.22
2023-05-24T15:57:57.868Z,20.25
2023-05-24T16:00:29.956Z,20.27
2023-05-24T16:02:58.005Z,20.26
2023-05-24T16:05:26.949Z,20.24
2023-05-24T16:07:53.798Z,20.26
2023-05-24T16:10:23.668Z,20.27
2023-05-24T16:12:55.431Z,20.25
2023-05-24T16:15:22.334Z,20.26
2023-05-24T16:17:55.309Z,20.25
2023-05-24T16:20:22.282Z,20.26
2023-05-24T16:22:51.297Z,20.23
2023-05-24T16:25:17.961Z,20.26
2023-05-24T16:27:46.951Z,20.26
2023-05-24T16:30:16.292Z,20.26
2023-05-24T16:32:46.453Z,20.24
2023-05-24T16:35:13.279Z,20.26
2023-05-24T16:37:40.100Z,20.26
2023-05-24T16:40:07.681Z,20.27
2023-05-24T16:42:36.961Z,20.27
2023-05-24T16:45:04.014Z,20.27
2023-05-24T16:47:33.059Z,20.26
2023-05-24T16:49:59.933Z,20.22
2023-05-24T16:52:28.789Z,20.26
2023-05-24T16:54:57.685Z,20.28
2023-05-24T16:57:26.684Z,20.30
2023-05-24T16:59:58.188Z,20.29
2023-05-24T17:02:24.956Z,20.30
2023-05-24T17:04:53.944Z,20.30
2023-05-24T17:07:20.711Z,20.30
2023-05-24T17:09:50.214Z,20.30
2023-05-24T17:12:17.560Z,20.33
2023-05-24T17:14:44.621Z,20.31
2023-05-24T17:17:13.760Z,20.30
2023-05-24T17:19:42.705Z,20.31
2023-05-24T17:22:11.989Z,20.31
2023-05-24T17:24:40.902Z,20.31
2023-05-24T17:27:09.851Z,20.32
2023-05-24T17:29:39.185Z,20.32
2023-05-24T17:32:08.233Z,20.32
2023-05-24T17:34:34.987Z,20.29
2023-05-24T17:37:06.375Z,20.31
2023-05-24T17:39:35.849Z,20.30
2023-05-24T17:42:03.039Z,20.28
2023-05-24T17:44:29.902Z,20.28
2023-05-24T17:46:57.534Z,20.28
2023-05-24T17:49:26.664Z,20.26
2023-05-24T17:51:53.658Z,20.24
2023-05-24T17:54:22.517Z,20.25
2023-05-24T17:56:51.434Z,20.25
2023-05-24T17:59:18.348Z,20.27
2023-05-24T18:01:48.960Z,20.27
2023-05-24T18:04:18.062Z,20.28
2023-05-24T18:06:45.413Z,20.28
2023-05-24T18:09:14.252Z,20.25
2023-05-24T18:11:41.317Z,20.25
2023-05-24T18:14:08.051Z,20.24
2023-05-24T18:16:39.528Z,20.26
2023-05-24T18:19:09.023Z,20.27
2023-05-24T18:21:37.921Z,20.25
2023-05-24T18:24:07.297Z,20.23
2023-05-24T18:26:36.181Z,20.25
2023-05-24T18:29:05.088Z,20.23
2023-05-24T18:31:31.839Z,20.21
2023-05-24T18:34:01.898Z,20.24
2023-05-24T18:36:29.533Z,20.25
2023-05-24T18:38:56.561Z,20.23
2023-05-24T18:41:23.310Z,20.24
2023-05-24T18:43:50.053Z,20.24
2023-05-24T18:46:21.594Z,20.25
2023-05-24T18:48:48.376Z,20.27
2023-05-24T18:51:17.757Z,20.28
2023-05-24T18:53:48.900Z,20.28
2023-05-24T18:56:18.557Z,20.28
2023-05-24T18:58:49.661Z,20.26
2023-05-24T19:01:19.134Z,20.25
2023-05-24T19:03:48.216Z,20.24
2023-05-24T19:06:18.700Z,20.25
2023-05-24T19:08:45.506Z,20.27
2023-05-24T19:11:12.334Z,20.27
2023-05-24T19:13:41.915Z,20.26
2023-05-24T19:16:17.432Z,20.26
2023-05-24T19:18:47.289Z,20.24
2023-05-24T19:21:17.057Z,20.26
2023-05-24T19:23:48.480Z,20.29
2023-05-24T19:26:20.533Z,20.29
2023-05-24T19:28:51.935Z,20.30
2023-05-24T19:31:23.398Z,20.31
2023-05-24T19:36:25.983Z,20.27
2023-05-24T19:38:54.848Z,20.28
2023-05-24T19:41:24.118Z,20.28
2023-05-24T19:43:54.955Z,20.27
2023-05-24T19:46:23.218Z,20.25
2023-05-24T19:48:54.641Z,20.26
2023-05-24T19:51:21.450Z,20.26
2023-05-24T19:53:48.086Z,20.26
2023-05-24T19:56:14.793Z,20.25
2023-05-24T19:58:41.501Z,20.25
2023-05-24T20:01:10.563Z,20.24
2023-05-24T20:03:39.980Z,20.22
2023-05-24T20:06:06.973Z,20.22
2023-05-24T20:08:35.867Z,20.22
2023-05-24T20:11:03.405Z,20.21
2023-05-24T20:13:32.700Z,20.20
2023-05-24T20:16:01.787Z,20.19
2023-05-24T20:18:30.718Z,20.18
2023-05-24T20:20:57.636Z,20.17
2023-05-24T20:23:27.570Z,20.17
2023-05-24T20:25:55.736Z,20.18
2023-05-24T20:28:30.902Z,20.18
2023-05-24T20:30:58.689Z,20.17
2023-05-24T20:33:27.709Z,20.17
2023-05-24T20:35:56.799Z,20.15
2023-05-24T20:38:25.635Z,20.17
2023-05-24T20:40:54.537Z,20.16
2023-05-24T20:43:21.509Z,20.15
2023-05-24T20:45:50.442Z,20.17
2023-05-24T20:48:17.629Z,20.21
2023-05-24T20:50:44.499Z,20.18
2023-05-24T20:53:11.681Z,20.14
2023-05-24T20:55:40.868Z,20.18
2023-05-24T20:58:09.708Z,20.16
2023-05-24T21:00:38.261Z,20.18
2023-05-24T21:03:11.339Z,20.17
2023-05-24T21:05:40.132Z,20.18
2023-05-24T21:08:11.616Z,20.22
2023-05-24T21:10:40.792Z,20.23
2023-05-24T21:13:09.644Z,20.23
2023-05-24T21:15:36.371Z,20.20
2023-05-24T21:18:03.844Z,20.18
2023-05-24T21:20:30.602Z,20.18
2023-05-24T21:22:57.305Z,20.18
2023-05-24T21:25:24.547Z,20.18
2023-05-24T21:27:53.622Z,20.17
2023-05-24T21:30:20.483Z,20.18
2023-05-24T21:32:49.320Z,20.20
2023-05-24T21:35:21.556Z,20.17
2023-05-24T21:37:48.562Z,20.17
2023-05-24T21:40:15.739Z,20.18
2023-05-24T21:42:43.353Z,20.18
2023-05-24T21:45:12.751Z,20.18
2023-05-24T21:47:39.521Z,20.19
2023-05-24T21:50:06.849Z,20.20
2023-05-24T21:52:39.546Z,20.21
2023-05-24T21:55:06.575Z,20.22
2023-05-24T21:57:35.469Z,20.21
2023-05-24T22:00:05.127Z,20.23
2023-05-24T22:02:32.079Z,20.22
2023-05-24T22:05:01.707Z,20.22
2023-05-24T22:07:30.744Z,20.22
2023-05-24T22:09:59.788Z,20.18
2023-05-24T22:12:26.456Z,20.25
2023-05-24T22:14:57.861Z,20.24
2023-05-24T22:17:26.819Z,20.25
2023-05-24T22:19:55.732Z,20.21
2023-05-24T22:22:22.797Z,20.27
2023-05-24T22:24:51.789Z,20.27
2023-05-24T22:27:18.548Z,20.28
2023-05-24T22:29:48.425Z,20.28
2023-05-24T22:32:20.509Z,20.22
2023-05-24T22:34:47.303Z,20.29
2023-05-24T22:37:16.722Z,20.30
2023-05-24T22:39:46.016Z,20.30
2023-05-24T22:42:15.409Z,20.29
2023-05-24T22:44:46.579Z,20.28
2023-05-24T22:47:14.127Z,20.30
2023-05-24T22:49:43.130Z,20.30
2023-05-24T22:52:11.948Z,20.32
2023-05-24T22:54:40.833Z,20.33
2023-05-24T22:57:07.430Z,20.33
2023-05-24T22:59:37.416Z,20.32
2023-05-24T23:02:07.341Z,20.34
2023-05-24T23:04:34.097Z,20.34
2023-05-24T23:07:03.154Z,20.34
2023-05-24T23:09:35.396Z,20.36
2023-05-24T23:12:07.579Z,20.36
2023-05-24T23:14:38.632Z,20.37
2023-05-24T23:17:10.484Z,20.31
2023-05-24T23:19:43.332Z,20.35
2023-05-24T23:22:11.989Z,20.35
2023-05-24T23:24:44.546Z,20.35
2023-05-24T23:27:11.417Z,20.37
2023-05-24T23:29:59.450Z,20.38
2023-05-24T23:32:28.466Z,20.38
2023-05-24T23:34:55.341Z,20.33
2023-05-24T23:37:24.448Z,20.38
2023-05-24T23:39:52.037Z,20.36
2023-05-24T23:42:18.798Z,20.38
2023-05-24T23:44:50.180Z,20.39
2023-05-24T23:47:19.020Z,20.39
2023-05-24T23:49:47.789Z,20.40
2023-05-24T23:52:16.921Z,20.42
2023-05-24T23:54:45.791Z,20.41
2023-05-24T23:57:14.896Z,20.42
2023-05-24T23:59:43.786Z,20.42
